createdAt,value
2023-03-07T00:01:07.291Z,-1.06
2023-03-07T00:03:37.144Z,-1.04
2023-03-07T00:06:08.853Z,-1.01
2023-03-07T00:09:01.113Z,-0.98
2023-03-07T00:11:30.593Z,-0.94
2023-03-07T00:14:00.007Z,-0.93
2023-03-07T00:16:30.266Z,-0.95
2023-03-07T00:19:01.033Z,-0.99
2023-03-07T00:21:32.681Z,-1.00
2023-03-07T00:24:02.599Z,-1.02
2023-03-07T00:26:36.278Z,-1.05
2023-03-07T00:29:06.269Z,-1.07
2023-03-07T00:31:55.045Z,-1.06
2023-03-07T00:34:26.050Z,-1.07
2023-03-07T00:36:55.066Z,-1.06
2023-03-07T00:39:28.423Z,-1.05
2023-03-07T00:41:57.881Z,-1.02
2023-03-07T00:44:31.687Z,-0.98
2023-03-07T00:47:25.548Z,-0.95
2023-03-07T00:49:54.714Z,-0.93
2023-03-07T00:52:23.116Z,-0.94
2023-03-07T00:54:56.436Z,-0.94
2023-03-07T00:57:32.948Z,-0.94
2023-03-07T01:00:02.573Z,-0.95
2023-03-07T01:02:35.989Z,-0.97
2023-03-07T01:05:08.511Z,-0.99
2023-03-07T01:07:37.803Z,-0.99
2023-03-07T01:10:08.832Z,-0.99
2023-03-07T01:12:57.133Z,-1.01
2023-03-07T01:15:27.848Z,-1.01
2023-03-07T01:17:56.969Z,-1.05
2023-03-07T01:20:26.112Z,-1.06
2023-03-07T01:22:54.810Z,-1.06
2023-03-07T01:25:24.084Z,-1.07
2023-03-07T01:27:56.387Z,-1.09
2023-03-07T01:30:27.806Z,-1.13
2023-03-07T01:32:58.538Z,-1.12
2023-03-07T01:35:29.233Z,-1.13
2023-03-07T01:38:00.920Z,-1.12
2023-03-07T01:40:30.934Z,-1.08
2023-03-07T01:43:26.275Z,-1.08
2023-03-07T01:46:38.285Z,-1.06
2023-03-07T01:49:17.694Z,-1.09
2023-03-07T01:52:08.805Z,-1.10
2023-03-07T01:54:42.719Z,-1.13
2023-03-07T01:57:11.310Z,-1.14
2023-03-07T01:59:45.286Z,-1.16
2023-03-07T02:02:18.492Z,-1.15
2023-03-07T02:04:57.406Z,-1.13
2023-03-07T02:07:29.850Z,-1.10
2023-03-07T02:09:59.637Z,-1.09
2023-03-07T02:12:28.601Z,-1.08
2023-03-07T02:14:57.604Z,-1.06
2023-03-07T02:17:32.076Z,-1.04
2023-03-07T02:20:06.693Z,-1.04
2023-03-07T02:22:40.839Z,-1.04
2023-03-07T02:25:28.367Z,-1.05
2023-03-07T02:27:56.992Z,-1.08
2023-03-07T02:30:27.136Z,-1.12
2023-03-07T02:33:00.198Z,-1.15
2023-03-07T02:35:34.048Z,-1.18
2023-03-07T02:38:03.780Z,-1.19
2023-03-07T02:40:39.942Z,-1.19
2023-03-07T02:43:11.834Z,-1.20
2023-03-07T02:45:41.367Z,-1.22
2023-03-07T02:48:12.084Z,-1.25
2023-03-07T02:50:43.345Z,-1.28
2023-03-07T02:53:13.873Z,-1.30
2023-03-07T02:55:43.584Z,-1.30
2023-03-07T02:58:15.757Z,-1.32
2023-03-07T03:03:26.621Z,-1.29
2023-03-07T03:06:00.988Z,-1.29
2023-03-07T03:08:31.785Z,-1.26
2023-03-07T03:11:01.082Z,-1.24
2023-03-07T03:13:30.914Z,-1.22
2023-03-07T03:16:01.957Z,-1.26
2023-03-07T03:18:30.775Z,-1.26
2023-03-07T03:21:00.387Z,-1.27
2023-03-07T03:23:29.147Z,-1.30
2023-03-07T03:26:00.503Z,-1.31
2023-03-07T03:28:31.478Z,-1.33
2023-03-07T03:31:08.788Z,-1.35
2023-03-07T03:33:41.006Z,-1.38
2023-03-07T03:36:11.667Z,-1.40
2023-03-07T03:38:40.854Z,-1.40
2023-03-07T03:41:16.212Z,-1.40
2023-03-07T03:43:46.924Z,-1.37
2023-03-07T03:46:17.078Z,-1.34
2023-03-07T03:48:53.705Z,-1.33
2023-03-07T03:51:27.146Z,-1.31
2023-03-07T03:53:58.746Z,-1.29
2023-03-07T03:56:28.722Z,-1.25
2023-03-07T03:58:57.524Z,-1.24
2023-03-07T04:01:28.536Z,-1.24
2023-03-07T04:03:57.892Z,-1.22
2023-03-07T04:06:28.477Z,-1.24
2023-03-07T04:08:59.610Z,-1.25
2023-03-07T04:11:35.783Z,-1.26
2023-03-07T04:14:04.614Z,-1.26
2023-03-07T04:16:35.819Z,-1.27
2023-03-07T04:19:05.929Z,-1.27
2023-03-07T04:21:44.181Z,-1.25
2023-03-07T04:24:13.737Z,-1.23
2023-03-07T04:26:44.137Z,-1.22
2023-03-07T04:29:14.295Z,-1.24
2023-03-07T04:31:47.256Z,-1.25
2023-03-07T04:34:18.981Z,-1.27
2023-03-07T04:36:59.608Z,-1.26
2023-03-07T04:39:28.329Z,-1.25
2023-03-07T04:42:11.456Z,-1.25
2023-03-07T04:44:42.567Z,-1.24
2023-03-07T04:47:27.372Z,-1.21
2023-03-07T04:50:02.394Z,-1.21
2023-03-07T04:52:38.167Z,-1.16
2023-03-07T04:55:07.853Z,-1.12
2023-03-07T04:58:05.572Z,-1.07
2023-03-07T05:00:34.138Z,-1.00
2023-03-07T05:03:06.188Z,-0.95
2023-03-07T05:05:48.292Z,-0.91
2023-03-07T05:08:17.949Z,-0.88
2023-03-07T05:10:46.694Z,-0.84
2023-03-07T05:13:17.939Z,-0.79
2023-03-07T05:16:20.342Z,-0.74
2023-03-07T05:18:49.735Z,-0.65
2023-03-07T05:21:29.171Z,-0.56
2023-03-07T05:24:07.931Z,-0.49
2023-03-07T05:26:40.963Z,-0.43
2023-03-07T05:29:19.222Z,-0.37
2023-03-07T05:31:51.966Z,-0.31
2023-03-07T05:34:22.013Z,-0.26
2023-03-07T05:37:04.749Z,-0.20
2023-03-07T05:39:34.182Z,-0.13
2023-03-07T05:42:05.648Z,-0.06
2023-03-07T05:44:36.676Z,0.04
2023-03-07T05:47:07.508Z,0.10
2023-03-07T05:49:41.674Z,0.16
2023-03-07T05:52:13.368Z,0.24
2023-03-07T05:54:42.442Z,0.29
2023-03-07T05:57:11.721Z,0.33
2023-03-07T05:59:43.969Z,0.37
2023-03-07T06:02:16.051Z,0.41
2023-03-07T06:04:54.274Z,0.47
2023-03-07T06:07:29.781Z,0.56
2023-03-07T06:10:00.678Z,0.66
2023-03-07T06:12:29.493Z,0.70
2023-03-07T06:14:59.208Z,0.74
2023-03-07T06:17:36.118Z,0.76
2023-03-07T06:20:06.402Z,0.79
2023-03-07T06:22:38.391Z,0.85
2023-03-07T06:25:08.972Z,0.88
2023-03-07T06:27:43.464Z,0.90
2023-03-07T06:30:14.376Z,0.93
2023-03-07T06:32:46.428Z,0.96
2023-03-07T06:35:15.354Z,0.98
2023-03-07T06:37:43.908Z,0.98
2023-03-07T06:40:15.835Z,0.96
2023-03-07T06:42:45.133Z,0.95
2023-03-07T06:45:16.216Z,0.93
2023-03-07T06:47:45.386Z,0.89
2023-03-07T06:50:19.315Z,0.84
2023-03-07T06:53:00.372Z,0.80
2023-03-07T06:55:30.180Z,0.77
2023-03-07T06:58:04.973Z,0.72
2023-03-07T07:00:34.141Z,0.70
2023-03-07T07:03:16.448Z,0.72
2023-03-07T07:05:46.353Z,0.72
2023-03-07T07:08:17.502Z,0.73
2023-03-07T07:10:48.023Z,0.73
2023-03-07T07:13:21.610Z,0.74
2023-03-07T07:15:55.475Z,0.77
2023-03-07T07:18:24.866Z,0.82
2023-03-07T07:20:55.564Z,0.83
2023-03-07T07:23:29.267Z,0.84
2023-03-07T07:25:58.090Z,0.89
2023-03-07T07:28:29.885Z,0.94
2023-03-07T07:30:58.394Z,0.99
2023-03-07T07:33:29.141Z,1.06
2023-03-07T07:35:59.565Z,1.10
2023-03-07T07:38:45.383Z,1.13
2023-03-07T07:41:22.681Z,1.14
2023-03-07T07:43:55.711Z,1.14
2023-03-07T07:46:34.569Z,1.14
2023-03-07T07:49:09.117Z,1.15
2023-03-07T07:51:43.155Z,1.16
2023-03-07T07:54:13.324Z,1.19
2023-03-07T07:56:45.408Z,1.20
2023-03-07T07:59:21.331Z,1.18
2023-03-07T08:02:00.849Z,1.19
2023-03-07T08:04:37.481Z,1.17
2023-03-07T08:07:09.522Z,1.18
2023-03-07T08:09:46.316Z,1.19
2023-03-07T08:12:16.049Z,1.22
2023-03-07T08:14:48.908Z,1.25
2023-03-07T08:17:18.207Z,1.25
2023-03-07T08:20:02.860Z,1.30
2023-03-07T08:22:40.630Z,1.35
2023-03-07T08:25:35.313Z,1.42
2023-03-07T08:28:06.720Z,1.47
2023-03-07T08:30:38.415Z,1.52
2023-03-07T08:33:11.320Z,1.57
2023-03-07T08:35:49.543Z,1.66
2023-03-07T08:38:26.187Z,1.74
2023-03-07T08:41:17.014Z,1.80
2023-03-07T08:44:07.605Z,1.81
2023-03-07T08:46:40.061Z,1.87
2023-03-07T08:49:13.682Z,1.95
2023-03-07T08:51:52.749Z,2.07
2023-03-07T08:54:34.422Z,2.27
2023-03-07T08:57:05.668Z,2.43
2023-03-07T08:59:41.821Z,2.54
2023-03-07T09:03:04.905Z,2.59
2023-03-07T09:05:41.274Z,2.65
2023-03-07T09:08:32.736Z,2.70
2023-03-07T09:11:05.734Z,2.74
2023-03-07T09:13:49.774Z,2.77
2023-03-07T09:16:20.892Z,2.77
2023-03-07T09:19:10.819Z,2.79
2023-03-07T09:25:58.310Z,2.97
2023-03-07T09:28:40.342Z,3.06
2023-03-07T09:31:54.511Z,3.13
2023-03-07T09:34:24.325Z,3.13
2023-03-07T09:36:53.169Z,3.13
2023-03-07T09:39:26.440Z,3.15
2023-03-07T09:42:33.836Z,3.28
2023-03-07T09:45:31.160Z,3.65
2023-03-07T09:48:34.703Z,4.28
2023-03-07T09:51:42.722Z,5.24
2023-03-07T09:54:23.951Z,6.42
2023-03-07T09:57:09.057Z,7.33
2023-03-07T09:59:49.737Z,7.84
2023-03-07T10:02:36.341Z,7.97
2023-03-07T10:05:09.019Z,7.80
2023-03-07T10:07:46.204Z,7.45
2023-03-07T10:10:42.905Z,7.10
2023-03-07T10:13:45.172Z,6.58
2023-03-07T10:16:39.302Z,6.03
2023-03-07T10:19:35.792Z,5.65
2023-03-07T10:22:09.525Z,5.41
2023-03-07T10:24:54.988Z,5.25
2023-03-07T10:27:26.835Z,5.39
2023-03-07T10:30:00.800Z,5.99
2023-03-07T10:32:30.007Z,6.99
2023-03-07T10:35:18.810Z,7.70
2023-03-07T10:37:52.825Z,7.95
2023-03-07T10:40:44.204Z,8.00
2023-03-07T10:44:00.412Z,8.35
2023-03-07T10:46:55.764Z,9.02
2023-03-07T10:52:54.884Z,8.58
2023-03-07T10:55:36.461Z,7.98
2023-03-07T10:58:24.337Z,7.52
2023-03-07T11:01:25.761Z,7.10
2023-03-07T11:04:08.520Z,6.70
2023-03-07T11:09:55.792Z,7.18
2023-03-07T11:12:39.956Z,8.38
2023-03-07T11:15:52.847Z,9.72
2023-03-07T11:18:33.011Z,10.99
2023-03-07T11:21:03.552Z,11.30
2023-03-07T11:24:00.597Z,11.28
2023-03-07T11:26:34.746Z,11.04
2023-03-07T11:29:13.508Z,11.02
2023-03-07T11:32:11.031Z,11.21
2023-03-07T11:34:41.695Z,11.24
2023-03-07T11:37:24.372Z,10.99
2023-03-07T11:40:31.090Z,10.41
2023-03-07T11:43:05.689Z,10.32
2023-03-07T11:46:04.277Z,10.79
2023-03-07T11:49:02.867Z,11.87
2023-03-07T11:52:02.149Z,12.86
2023-03-07T11:55:00.634Z,13.27
2023-03-07T11:58:03.472Z,12.95
2023-03-07T12:01:19.103Z,12.10
2023-03-07T12:04:45.777Z,10.99
2023-03-07T12:07:23.636Z,10.02
2023-03-07T12:10:04.587Z,9.56
2023-03-07T12:13:09.418Z,9.11
2023-03-07T12:15:51.156Z,8.58
2023-03-07T12:18:41.907Z,8.27
2023-03-07T12:21:22.809Z,8.00
2023-03-07T12:23:59.783Z,7.76
2023-03-07T12:26:43.969Z,7.66
2023-03-07T12:29:38.093Z,7.58
2023-03-07T12:32:20.720Z,7.49
2023-03-07T12:35:00.869Z,7.45
2023-03-07T12:37:40.811Z,7.35
2023-03-07T12:40:23.777Z,7.30
2023-03-07T12:43:24.531Z,7.24
2023-03-07T12:46:03.913Z,7.19
2023-03-07T12:48:36.009Z,7.24
2023-03-07T12:51:26.755Z,7.33
2023-03-07T12:53:59.594Z,7.29
2023-03-07T12:56:41.932Z,7.14
2023-03-07T12:59:15.708Z,6.99
2023-03-07T13:01:54.224Z,6.89
2023-03-07T13:04:43.907Z,6.84
2023-03-07T13:07:49.544Z,6.81
2023-03-07T13:10:22.846Z,6.81
2023-03-07T13:12:54.773Z,6.78
2023-03-07T13:15:27.978Z,6.70
2023-03-07T13:18:02.317Z,6.61
2023-03-07T13:20:43.524Z,6.59
2023-03-07T13:23:26.615Z,6.57
2023-03-07T13:26:10.780Z,6.53
2023-03-07T13:29:04.155Z,6.52
2023-03-07T13:31:47.813Z,6.59
2023-03-07T13:35:05.519Z,6.65
2023-03-07T13:37:58.988Z,6.68
2023-03-07T13:44:36.304Z,6.63
2023-03-07T13:47:06.625Z,6.59
2023-03-07T13:49:38.943Z,6.55
2023-03-07T13:55:31.231Z,6.44
2023-03-07T14:01:42.226Z,6.34
2023-03-07T14:04:54.724Z,6.29
2023-03-07T14:07:29.070Z,6.24
2023-03-07T14:10:19.701Z,6.21
2023-03-07T14:13:12.233Z,6.20
2023-03-07T14:16:16.405Z,6.15
2023-03-07T14:19:00.211Z,6.11
2023-03-07T14:22:08.721Z,6.10
2023-03-07T14:25:00.446Z,6.06
2023-03-07T14:27:34.831Z,6.02
2023-03-07T14:30:18.708Z,5.99
2023-03-07T14:33:04.242Z,5.97
2023-03-07T14:35:41.405Z,5.96
2023-03-07T14:38:26.902Z,5.95
2023-03-07T14:41:27.766Z,5.91
2023-03-07T14:44:40.528Z,5.87
2023-03-07T14:47:56.480Z,5.81
2023-03-07T14:50:32.224Z,5.78
2023-03-07T14:53:12.895Z,5.75
2023-03-07T14:55:42.762Z,5.72
2023-03-07T14:58:21.351Z,5.69
2023-03-07T15:01:03.108Z,5.66
2023-03-07T15:03:37.088Z,5.64
2023-03-07T15:06:14.746Z,5.62
2023-03-07T15:08:47.497Z,5.58
2023-03-07T15:11:19.921Z,5.53
2023-03-07T15:14:17.698Z,5.49
2023-03-07T15:16:51.261Z,5.47
2023-03-07T15:19:53.926Z,5.47
2023-03-07T15:22:40.627Z,5.50
2023-03-07T15:25:23.974Z,5.52
2023-03-07T15:28:06.883Z,5.48
2023-03-07T15:30:41.480Z,5.46
2023-03-07T15:33:19.395Z,5.42
2023-03-07T15:36:12.928Z,5.39
2023-03-07T15:38:53.208Z,5.34
2023-03-07T15:41:37.201Z,5.26
2023-03-07T15:44:06.023Z,5.21
2023-03-07T15:46:41.505Z,5.18
2023-03-07T15:49:41.207Z,5.14
2023-03-07T15:52:37.473Z,5.13
2023-03-07T15:55:15.617Z,5.08
2023-03-07T15:58:04.623Z,5.03
2023-03-07T16:00:38.828Z,4.95
2023-03-07T16:03:29.020Z,4.91
2023-03-07T16:06:00.799Z,4.87
2023-03-07T16:08:29.970Z,4.85
2023-03-07T16:11:03.969Z,4.84
2023-03-07T16:14:02.532Z,4.84
2023-03-07T16:16:34.352Z,4.83
2023-03-07T16:19:07.381Z,4.84
2023-03-07T16:21:38.496Z,4.83
2023-03-07T16:24:09.875Z,4.83
2023-03-07T16:26:39.193Z,4.82
2023-03-07T16:29:20.855Z,4.79
2023-03-07T16:32:04.485Z,4.76
2023-03-07T16:34:38.504Z,4.74
2023-03-07T16:37:09.352Z,4.71
2023-03-07T16:39:53.322Z,4.65
2023-03-07T16:42:35.366Z,4.59
2023-03-07T16:45:05.680Z,4.50
2023-03-07T16:47:37.743Z,4.43
2023-03-07T16:50:17.560Z,4.37
2023-03-07T16:53:01.125Z,4.31
2023-03-07T16:55:33.301Z,4.26
2023-03-07T16:58:13.519Z,4.23
2023-03-07T17:00:45.716Z,4.19
2023-03-07T17:03:22.210Z,4.15
2023-03-07T17:05:57.476Z,4.10
2023-03-07T17:08:30.680Z,4.05
2023-03-07T17:11:29.530Z,3.98
2023-03-07T17:14:22.823Z,3.92
2023-03-07T17:16:51.567Z,3.87
2023-03-07T17:19:27.176Z,3.84
2023-03-07T17:22:10.598Z,3.80
2023-03-07T17:24:55.161Z,3.77
2023-03-07T17:27:29.804Z,3.73
2023-03-07T17:30:18.536Z,3.68
2023-03-07T17:32:48.662Z,3.63
2023-03-07T17:35:19.010Z,3.59
2023-03-07T17:37:50.801Z,3.57
2023-03-07T17:40:27.648Z,3.56
2023-03-07T17:43:00.263Z,3.52
2023-03-07T17:45:31.164Z,3.46
2023-03-07T17:48:00.458Z,3.41
2023-03-07T17:50:33.950Z,3.36
2023-03-07T17:53:09.754Z,3.32
2023-03-07T17:55:45.242Z,3.29
2023-03-07T17:58:23.464Z,3.27
2023-03-07T18:00:52.545Z,3.24
2023-03-07T18:03:24.666Z,3.22
2023-03-07T18:05:55.856Z,3.21
2023-03-07T18:08:30.021Z,3.23
2023-03-07T18:14:10.191Z,3.20
2023-03-07T18:17:31.392Z,3.21
2023-03-07T18:20:28.019Z,3.20
2023-03-07T18:23:14.130Z,3.21
2023-03-07T18:25:46.240Z,3.23
2023-03-07T18:28:16.880Z,3.24
2023-03-07T18:31:39.587Z,3.24
2023-03-07T18:34:29.617Z,3.22
2023-03-07T18:37:03.263Z,3.17
2023-03-07T18:39:38.284Z,3.14
2023-03-07T18:42:21.446Z,3.12
2023-03-07T18:45:02.665Z,3.11
2023-03-07T18:47:35.560Z,3.10
2023-03-07T18:50:06.207Z,3.07
2023-03-07T18:52:40.652Z,3.06
2023-03-07T18:55:10.828Z,3.06
2023-03-07T18:57:44.181Z,3.09
2023-03-07T19:00:15.702Z,3.12
2023-03-07T19:02:48.756Z,3.12
2023-03-07T19:05:32.385Z,3.11
2023-03-07T19:08:16.363Z,3.09
2023-03-07T19:10:49.728Z,3.05
2023-03-07T19:13:20.408Z,3.00
2023-03-07T19:16:26.631Z,2.98
2023-03-07T19:19:07.320Z,2.94
2023-03-07T19:21:36.972Z,2.89
2023-03-07T19:24:10.737Z,2.84
2023-03-07T19:26:43.580Z,2.79
2023-03-07T19:29:13.333Z,2.76
2023-03-07T19:31:44.179Z,2.74
2023-03-07T19:34:18.006Z,2.71
2023-03-07T19:36:50.599Z,2.69
2023-03-07T19:39:20.775Z,2.66
2023-03-07T19:41:50.570Z,2.62
2023-03-07T19:44:22.942Z,2.59
2023-03-07T19:46:53.867Z,2.55
2023-03-07T19:49:39.402Z,2.51
2023-03-07T19:52:14.040Z,2.48
2023-03-07T19:54:45.843Z,2.44
2023-03-07T19:57:17.910Z,2.38
2023-03-07T19:59:54.656Z,2.32
2023-03-07T20:02:27.350Z,2.25
2023-03-07T20:05:03.926Z,2.19
2023-03-07T20:07:34.995Z,2.12
2023-03-07T20:10:03.965Z,2.05
2023-03-07T20:12:36.008Z,1.97
2023-03-07T20:15:08.611Z,1.91
2023-03-07T20:17:41.803Z,1.88
2023-03-07T20:20:11.839Z,1.87
2023-03-07T20:22:56.202Z,1.83
2023-03-07T20:25:37.129Z,1.80
2023-03-07T20:28:17.662Z,1.77
2023-03-07T20:30:46.322Z,1.76
2023-03-07T20:33:15.590Z,1.71
2023-03-07T20:36:01.874Z,1.65
2023-03-07T20:38:34.730Z,1.60
2023-03-07T20:41:08.847Z,1.55
2023-03-07T20:43:39.640Z,1.48
2023-03-07T20:46:13.096Z,1.43
2023-03-07T20:48:43.433Z,1.39
2023-03-07T20:51:21.476Z,1.36
2023-03-07T20:53:53.140Z,1.35
2023-03-07T20:56:22.668Z,1.33
2023-03-07T20:58:52.425Z,1.32
2023-03-07T21:01:21.110Z,1.31
2023-03-07T21:03:51.768Z,1.29
2023-03-07T21:06:31.794Z,1.30
2023-03-07T21:09:01.490Z,1.29
2023-03-07T21:11:55.406Z,1.27
2023-03-07T21:14:27.050Z,1.25
2023-03-07T21:17:02.801Z,1.21
2023-03-07T21:19:34.376Z,1.18
2023-03-07T21:22:15.699Z,1.16
2023-03-07T21:24:44.702Z,1.11
2023-03-07T21:27:13.405Z,1.08
2023-03-07T21:29:43.358Z,1.06
2023-03-07T21:32:18.474Z,1.04
2023-03-07T21:34:52.358Z,1.03
2023-03-07T21:37:23.828Z,1.00
2023-03-07T21:39:58.113Z,0.97
2023-03-07T21:42:33.151Z,0.94
2023-03-07T21:45:13.789Z,0.94
2023-03-07T21:48:00.663Z,0.92
2023-03-07T21:50:38.673Z,0.90
2023-03-07T21:53:12.517Z,0.85
2023-03-07T21:55:58.527Z,0.81
2023-03-07T21:58:36.283Z,0.76
2023-03-07T22:01:12.892Z,0.72
2023-03-07T22:03:44.386Z,0.67
2023-03-07T22:06:22.228Z,0.64
2023-03-07T22:08:53.313Z,0.61
2023-03-07T22:11:24.578Z,0.57
2023-03-07T22:13:54.658Z,0.52
2023-03-07T22:16:38.885Z,0.50
2023-03-07T22:19:09.781Z,0.48
2023-03-07T22:21:38.657Z,0.48
2023-03-07T22:24:11.710Z,0.47
2023-03-07T22:27:08.305Z,0.45
2023-03-07T22:29:38.516Z,0.44
2023-03-07T22:32:09.120Z,0.40
2023-03-07T22:34:41.350Z,0.36
2023-03-07T22:37:10.196Z,0.30
2023-03-07T22:39:52.067Z,0.26
2023-03-07T22:42:23.934Z,0.27
2023-03-07T22:45:18.278Z,0.25
2023-03-07T22:47:49.905Z,0.20
2023-03-07T22:50:30.469Z,0.14
2023-03-07T22:52:59.873Z,0.13
2023-03-07T22:55:30.544Z,0.13
2023-03-07T22:58:02.626Z,0.12
2023-03-07T23:00:34.767Z,0.13
2023-03-07T23:03:14.407Z,0.12
2023-03-07T23:05:42.955Z,0.12
2023-03-07T23:08:18.547Z,0.11
2023-03-07T23:10:49.730Z,0.07
2023-03-07T23:13:20.508Z,0.06
2023-03-07T23:15:49.915Z,0.06
2023-03-07T23:18:32.956Z,0.07
2023-03-07T23:21:02.882Z,0.06
2023-03-07T23:23:34.347Z,0.06
2023-03-07T23:26:17.341Z,0.05
2023-03-07T23:28:48.744Z,0.05
2023-03-07T23:31:28.584Z,0.05
2023-03-07T23:34:05.250Z,0.05
2023-03-07T23:36:39.174Z,0.02
2023-03-07T23:39:13.374Z,-0.01
2023-03-07T23:41:43.816Z,-0.02
2023-03-07T23:44:14.273Z,-0.03
2023-03-07T23:46:43.236Z,-0.04
2023-03-07T23:49:13.155Z,-0.06
2023-03-07T23:51:44.731Z,-0.09
2023-03-07T23:54:19.080Z,-0.12
2023-03-07T23:56:49.175Z,-0.14
2023-03-07T23:59:18.609Z,-0.14
